Time;durP1;ratioP1;P1;durP2;ratioP2;P2;SDS_P1;SDS_P2;PMS_P1;PMS_P2;Temp;Humidity;BMP_temperature;BMP_pressure;BME280_temperature;BME280_humidity;BME280_pressure;Samples;Min_cycle;Max_cycle;Signal;HPM_P1;HPM_P2
2023/05/25 00:00:56;;;;;;;;;;;;;;;19.46;63.61;96907.19;599231;234;62944;-60
2023/05/25 00:03:26;;;;;;;;;;;;;;;19.46;63.61;96910.66;599241;234;68790;-60
2023/05/25 00:05:52;;;;;;;;;;;;;;;19.46;63.61;96907.19;599207;234;68891;-61
2023/05/25 00:08:20;;;;;;;;;;;;;;;19.46;63.59;96915.19;598969;235;63030;-61
2023/05/25 00:10:47;;;;;;;;;;;;;;;19.45;63.59;96909.06;599048;234;68771;-61
2023/05/25 00:13:15;;;;;;;;;;;;;;;19.47;63.61;96911.45;599039;234;66592;-61
2023/05/25 00:15:43;;;;;;;;;;;;;;;19.45;63.60;96911.72;599024;234;64982;-61
2023/05/25 00:18:11;;;;;;;;;;;;;;;19.46;63.53;96904.52;598951;235;68807;-61
2023/05/25 00:20:39;;;;;;;;;;;;;;;19.46;63.55;96907.19;599161;234;66696;-60
2023/05/25 00:23:06;;;;;;;;;;;;;;;19.45;63.56;96906.39;598932;234;63003;-60
2023/05/25 00:25:34;;;;;;;;;;;;;;;19.45;63.50;96914.39;598915;237;68707;-60
2023/05/25 00:28:03;;;;;;;;;;;;;;;19.45;63.56;96913.56;599059;234;68551;-60
2023/05/25 00:30:30;;;;;;;;;;;;;;;19.46;63.52;96915.19;598970;235;62768;-61
2023/05/25 00:33:00;;;;;;;;;;;;;;;19.45;63.53;96913.56;598983;234;69294;-61
2023/05/25 00:35:28;;;;;;;;;;;;;;;19.46;63.50;96912.52;598996;234;66946;-60
2023/05/25 00:37:56;;;;;;;;;;;;;;;19.46;63.51;96909.86;599009;234;65125;-60
2023/05/25 00:40:23;;;;;;;;;;;;;;;19.45;63.54;96908.23;599106;234;66370;-60
2023/05/25 00:42:52;;;;;;;;;;;;;;;19.45;63.52;96908.23;599009;234;67457;-60
2023/05/25 00:45:19;;;;;;;;;;;;;;;19.45;63.53;96914.39;598943;235;64964;-60
2023/05/25 00:47:49;;;;;;;;;;;;;;;19.45;63.51;96916.23;598989;234;69437;-61
2023/05/25 00:50:19;;;;;;;;;;;;;;;19.45;63.50;96921.56;598963;235;69126;-62
2023/05/25 00:52:47;;;;;;;;;;;;;;;19.45;63.52;96918.89;599136;234;65049;-60
2023/05/25 00:55:16;;;;;;;;;;;;;;;19.45;63.50;96924.23;599057;234;66129;-61
2023/05/25 00:57:46;;;;;;;;;;;;;;;19.46;63.49;96925.84;599056;234;68731;-61
2023/05/25 01:00:16;;;;;;;;;;;;;;;19.45;63.47;96937.55;599059;234;64878;-61
2023/05/25 01:02:45;;;;;;;;;;;;;;;19.45;63.49;96932.22;599013;235;69155;-61
2023/05/25 01:05:13;;;;;;;;;;;;;;;19.44;63.50;96927.97;599070;235;66700;-61
2023/05/25 01:07:42;;;;;;;;;;;;;;;19.44;63.48;96930.63;599039;235;63008;-61
2023/05/25 01:10:11;;;;;;;;;;;;;;;19.45;63.49;96942.88;598997;234;68807;-61
2023/05/25 01:12:40;;;;;;;;;;;;;;;19.44;63.50;96933.30;598977;234;66657;-60
2023/05/25 01:15:08;;;;;;;;;;;;;;;19.44;63.46;96935.96;598978;235;65151;-60
2023/05/25 01:17:39;;;;;;;;;;;;;;;19.43;63.48;96940.50;599001;234;68785;-60
2023/05/25 01:20:07;;;;;;;;;;;;;;;19.44;63.45;96935.96;599050;235;68628;-61
2023/05/25 01:22:39;;;;;;;;;;;;;;;19.44;63.46;96928.77;599333;234;65073;-61
2023/05/25 01:25:08;;;;;;;;;;;;;;;19.44;63.46;96933.30;598944;235;69551;-61
2023/05/25 01:27:38;;;;;;;;;;;;;;;19.43;63.44;96943.16;599007;234;68724;-61
2023/05/25 01:30:07;;;;;;;;;;;;;;;19.44;63.41;96936.75;598957;234;65727;-61
2023/05/25 01:32:36;;;;;;;;;;;;;;;19.44;63.43;96930.63;598986;234;66525;-61
2023/05/25 01:35:04;;;;;;;;;;;;;;;19.43;63.42;96932.50;599011;236;68939;-61
2023/05/25 01:37:33;;;;;;;;;;;;;;;19.44;63.43;96930.63;599006;234;62985;-61
2023/05/25 01:40:00;;;;;;;;;;;;;;;19.43;63.42;96931.70;598906;235;68641;-61
2023/05/25 01:42:29;;;;;;;;;;;;;;;19.44;63.37;96934.09;598955;234;67034;-61
2023/05/25 01:44:58;;;;;;;;;;;;;;;19.43;63.38;96931.70;599016;234;65107;-61
2023/05/25 01:47:33;;;;;;;;;;;;;;;19.44;63.38;96927.97;598988;235;68862;-61
2023/05/25 01:50:19;;;;;;;;;;;;;;;19.42;63.33;96928.21;598945;235;66635;-61
2023/05/25 01:52:58;;;;;;;;;;;;;;;19.43;63.36;96921.84;598955;234;65727;-61
2023/05/25 01:55:27;;;;;;;;;;;;;;;19.43;63.37;96918.38;599047;234;67513;-60
2023/05/25 01:57:56;;;;;;;;;;;;;;;19.43;63.31;96926.38;599095;234;66328;-60
2023/05/25 02:00:30;;;;;;;;;;;;;;;19.43;63.36;96915.72;599210;234;63777;-60
2023/05/25 02:02:57;;;;;;;;;;;;;;;19.42;63.32;96922.88;598987;234;68640;-60
2023/05/25 02:05:26;;;;;;;;;;;;;;;19.42;63.33;96922.09;599024;234;67445;-60
2023/05/25 02:07:54;;;;;;;;;;;;;;;19.43;63.30;96926.38;599149;234;64977;-60
2023/05/25 02:10:22;;;;;;;;;;;;;;;19.42;63.33;96922.88;599000;235;66086;-60
2023/05/25 02:12:49;;;;;;;;;;;;;;;19.42;63.32;96922.09;598935;235;68795;-60
2023/05/25 02:15:18;;;;;;;;;;;;;;;19.42;63.30;96922.09;599140;234;63754;-60
2023/05/25 02:17:46;;;;;;;;;;;;;;;19.42;63.31;96930.88;598988;235;69593;-60
2023/05/25 02:20:13;;;;;;;;;;;;;;;19.42;63.30;96930.08;598977;235;68543;-60
2023/05/25 02:22:41;;;;;;;;;;;;;;;19.42;63.31;96933.55;598982;235;65797;-60
2023/05/25 02:25:09;;;;;;;;;;;;;;;19.42;63.31;96933.55;599008;234;68978;-60
2023/05/25 02:27:36;;;;;;;;;;;;;;;19.42;63.30;96925.55;598971;235;68716;-60
2023/05/25 02:30:04;;;;;;;;;;;;;;;19.42;63.28;96930.08;599048;235;65153;-60
2023/05/25 02:32:32;;;;;;;;;;;;;;;19.42;63.27;96932.75;599105;234;66348;-60
2023/05/25 02:35:00;;;;;;;;;;;;;;;19.42;63.28;96932.75;593700;236;70470;-61
2023/05/25 02:37:27;;;;;;;;;;;;;;;19.42;63.29;96932.75;599152;234;63085;-61
2023/05/25 02:39:55;;;;;;;;;;;;;;;19.42;63.29;96941.54;598999;234;68483;-60
2023/05/25 02:42:23;;;;;;;;;;;;;;;19.42;63.28;96935.41;599011;235;68978;-60
2023/05/25 02:44:51;;;;;;;;;;;;;;;19.42;63.30;96940.74;598995;234;65253;-60
2023/05/25 02:47:19;;;;;;;;;;;;;;;19.42;63.28;96938.08;598938;234;68606;-60
2023/05/25 02:49:46;;;;;;;;;;;;;;;19.42;63.26;96946.87;599005;234;66461;-60
2023/05/25 02:52:14;;;;;;;;;;;;;;;19.41;63.26;96947.95;599027;235;62779;-60
2023/05/25 02:54:42;;;;;;;;;;;;;;;19.41;63.24;96953.27;599094;234;69048;-60
2023/05/25 02:57:11;;;;;;;;;;;;;;;19.43;63.25;96947.70;598962;234;68997;-62
2023/05/25 02:59:39;;;;;;;;;;;;;;;19.41;63.24;96941.82;598960;235;65750;-61
2023/05/25 03:02:07;;;;;;;;;;;;;;;19.41;63.25;96947.95;593797;237;70196;-61
2023/05/25 03:04:37;;;;;;;;;;;;;;;19.41;63.23;96949.81;599070;235;69341;-61
2023/05/25 03:07:05;;;;;;;;;;;;;;;19.42;63.23;96946.08;599063;234;63729;-61
2023/05/25 03:09:32;;;;;;;;;;;;;;;19.41;63.21;96947.15;599003;235;66626;-61
2023/05/25 03:12:01;;;;;;;;;;;;;;;19.41;63.17;96955.14;599034;235;69402;-61
2023/05/25 03:14:29;;;;;;;;;;;;;;;19.41;63.20;96952.48;598954;234;62425;-60
2023/05/25 03:16:58;;;;;;;;;;;;;;;19.41;63.17;96955.14;598911;234;46933;-62
2023/05/25 03:19:26;;;;;;;;;;;;;;;19.41;63.19;96957.81;598964;235;69340;-61
2023/05/25 03:21:53;;;;;;;;;;;;;;;19.41;63.15;96955.94;599003;234;64942;-61
2023/05/25 03:24:21;;;;;;;;;;;;;;;19.41;63.15;96955.14;598976;234;68532;-61
2023/05/25 03:26:48;;;;;;;;;;;;;;;19.41;63.12;96963.94;598977;235;66058;-60
2023/05/25 03:29:16;;;;;;;;;;;;;;;19.41;63.11;96965.80;598925;234;63733;-61
2023/05/25 03:31:43;;;;;;;;;;;;;;;19.41;63.12;96968.47;598971;235;66870;-61
2023/05/25 03:34:11;;;;;;;;;;;;;;;19.41;63.11;96960.47;599012;234;69053;-60
2023/05/25 03:36:39;;;;;;;;;;;;;;;19.40;63.08;96958.88;599144;234;62768;-61
2023/05/25 03:39:08;;;;;;;;;;;;;;;19.41;63.10;96955.14;598955;235;69285;-61
2023/05/25 03:41:36;;;;;;;;;;;;;;;19.40;63.09;96961.55;599012;234;67588;-61
2023/05/25 03:44:04;;;;;;;;;;;;;;;19.40;63.08;96961.55;598925;235;65056;-61
2023/05/25 03:46:32;;;;;;;;;;;;;;;19.39;63.07;96955.39;599001;234;66629;-61
2023/05/25 03:49:00;;;;;;;;;;;;;;;19.40;63.06;96956.22;599022;235;69263;-61
2023/05/25 03:51:28;;;;;;;;;;;;;;;19.40;63.05;96964.21;599007;234;65287;-61
2023/05/25 03:53:55;;;;;;;;;;;;;;;19.41;63.04;96969.27;598974;235;69770;-60
2023/05/25 03:56:25;;;;;;;;;;;;;;;19.40;63.04;96972.20;598970;235;66180;-60
2023/05/25 03:58:52;;;;;;;;;;;;;;;19.40;63.03;96966.87;599052;234;64984;-61
2023/05/25 04:01:20;;;;;;;;;;;;;;;19.40;63.04;96973.00;599010;235;68841;-61
2023/05/25 04:03:47;;;;;;;;;;;;;;;19.39;63.03;96968.72;599060;234;66567;-60
2023/05/25 04:06:18;;;;;;;;;;;;;;;19.40;63.04;96977.53;598983;235;65054;-61
2023/05/25 04:08:44;;;;;;;;;;;;;;;19.40;63.04;96977.53;598919;235;66071;-61
2023/05/25 04:11:11;;;;;;;;;;;;;;;19.39;63.04;96970.59;599024;235;68443;-60
2023/05/25 04:13:39;;;;;;;;;;;;;;;19.39;63.01;96968.72;599072;234;65008;-61
2023/05/25 04:16:08;;;;;;;;;;;;;;;19.39;63.01;96973.25;598983;235;69496;-61
2023/05/25 04:18:36;;;;;;;;;;;;;;;19.40;63.02;96972.20;598942;235;69599;-61
2023/05/25 04:21:04;;;;;;;;;;;;;;;19.39;63.03;96967.92;598956;235;64894;-61
2023/05/25 04:23:32;;;;;;;;;;;;;;;19.40;62.99;96980.20;599032;235;67678;-61
2023/05/25 04:26:00;;;;;;;;;;;;;;;19.39;62.98;96978.58;598952;235;68803;-61
2023/05/25 04:28:28;;;;;;;;;;;;;;;19.38;62.99;96980.45;599070;234;65008;-60
2023/05/25 04:31:04;;;;;;;;;;;;;;;19.40;62.99;96980.20;592344;235;48509;-61
2023/05/25 04:33:37;;;;;;;;;;;;;;;19.38;63.01;96985.78;598929;235;45981;-61
2023/05/25 04:36:17;;;;;;;;;;;;;;;19.38;63.00;96983.11;593650;235;45002;-60
2023/05/25 04:38:46;;;;;;;;;;;;;;;19.39;63.01;96975.91;598895;234;69263;-61
2023/05/25 04:41:12;;;;;;;;;;;;;;;19.39;63.04;96986.58;599083;234;69020;-61
2023/05/25 04:43:40;;;;;;;;;;;;;;;19.38;63.04;96982.31;599123;234;62916;-61
2023/05/25 04:46:08;;;;;;;;;;;;;;;19.38;63.05;96987.65;598990;235;68969;-61
2023/05/25 04:48:37;;;;;;;;;;;;;;;19.37;63.05;96989.52;599022;235;66618;-61
2023/05/25 04:51:05;;;;;;;;;;;;;;;19.38;63.07;96984.98;599102;234;64965;-61
2023/05/25 04:53:34;;;;;;;;;;;;;;;19.38;63.04;96993.77;598970;235;69539;-61
2023/05/25 04:56:02;;;;;;;;;;;;;;;19.38;63.04;96987.65;598995;235;69087;-61
2023/05/25 04:58:29;;;;;;;;;;;;;;;19.38;63.06;96996.44;599017;234;65161;-61
2023/05/25 05:00:57;;;;;;;;;;;;;;;19.39;63.07;96997.23;599148;235;69305;-61
2023/05/25 05:03:25;;;;;;;;;;;;;;;19.38;63.07;97001.77;598959;235;68638;-61
2023/05/25 05:05:53;;;;;;;;;;;;;;;19.38;63.08;97007.09;598963;234;65776;-61
2023/05/25 05:08:22;;;;;;;;;;;;;;;19.38;63.10;97003.64;599667;234;46042;-61
2023/05/25 05:10:50;;;;;;;;;;;;;;;19.38;63.10;97011.63;601450;236;68664;-61
2023/05/25 05:13:17;;;;;;;;;;;;;;;19.38;63.13;97014.30;601567;236;62457;-61
2023/05/25 05:15:45;;;;;;;;;;;;;;;19.38;63.13;97009.77;599276;234;68693;-61
2023/05/25 05:18:13;;;;;;;;;;;;;;;19.37;63.15;97016.17;598991;234;68580;-61
2023/05/25 05:20:41;;;;;;;;;;;;;;;19.38;63.17;97016.96;598918;235;63759;-60
2023/05/25 05:23:08;;;;;;;;;;;;;;;19.37;63.16;97018.83;598934;235;68774;-61
2023/05/25 05:25:36;;;;;;;;;;;;;;;19.38;63.17;97019.63;598970;235;66758;-61
2023/05/25 05:28:04;;;;;;;;;;;;;;;19.37;63.21;97018.83;598854;235;62973;-61
2023/05/25 05:30:34;;;;;;;;;;;;;;;19.38;63.23;97025.75;599020;234;47554;-61
2023/05/25 05:33:04;;;;;;;;;;;;;;;19.38;63.20;97035.62;599025;234;49272;-61
2023/05/25 05:35:34;;;;;;;;;;;;;;;19.38;63.23;97038.28;599000;234;43778;-61
2023/05/25 05:38:03;;;;;;;;;;;;;;;19.37;63.25;97034.82;598798;235;48215;-61
2023/05/25 05:40:31;;;;;;;;;;;;;;;19.38;63.26;97040.95;598985;237;69514;-61
2023/05/25 05:42:59;;;;;;;;;;;;;;;19.36;63.27;97041.19;598960;234;65086;-61
2023/05/25 05:45:28;;;;;;;;;;;;;;;19.37;63.32;97037.48;598992;235;67294;-61
2023/05/25 05:47:56;;;;;;;;;;;;;;;19.37;63.28;97036.66;599087;234;69458;-61
2023/05/25 05:50:23;;;;;;;;;;;;;;;19.37;63.31;97036.66;598843;235;65143;-61
2023/05/25 05:52:52;;;;;;;;;;;;;;;19.37;63.31;97036.66;598858;235;65860;-61
2023/05/25 05:55:20;;;;;;;;;;;;;;;19.37;63.31;97033.99;590533;235;68789;-61
2023/05/25 05:57:50;;;;;;;;;;;;;;;19.37;63.30;97040.15;592742;238;43897;-61
2023/05/25 06:00:19;;;;;;;;;;;;;;;19.36;63.32;97045.72;593436;238;69702;-61
2023/05/25 06:02:47;;;;;;;;;;;;;;;19.37;63.36;97047.31;593289;238;66760;-61
2023/05/25 06:05:17;;;;;;;;;;;;;;;19.36;63.40;97041.19;592574;238;43652;-64
2023/05/25 06:07:45;;;;;;;;;;;;;;;19.42;64.26;97034.02;593194;238;66738;-61
2023/05/25 06:10:13;;;;;;;;;;;;;;;19.37;64.04;97041.98;593887;235;69084;-61
2023/05/25 06:12:43;;;;;;;;;;;;;;;19.36;63.99;97040.39;598869;234;65685;-61
2023/05/25 06:15:11;;;;;;;;;;;;;;;19.35;63.98;97044.93;599060;234;67497;-60
2023/05/25 06:17:40;;;;;;;;;;;;;;;19.37;63.85;97047.31;598862;235;66645;-61
2023/05/25 06:20:10;;;;;;;;;;;;;;;19.37;63.79;97042.81;598857;235;65163;-61
2023/05/25 06:22:37;;;;;;;;;;;;;;;19.38;63.68;97051.61;601323;235;68781;-61
2023/05/25 06:25:05;;;;;;;;;;;;;;;19.38;63.78;97047.07;601748;235;68849;-61
2023/05/25 06:27:33;;;;;;;;;;;;;;;19.41;64.41;97051.08;601994;235;63020;-61
2023/05/25 06:30:01;;;;;;;;;;;;;;;19.44;64.21;97053.23;601966;235;69404;-61
2023/05/25 06:32:29;;;;;;;;;;;;;;;19.45;63.69;97047.65;602028;235;69333;-61
2023/05/25 06:34:57;;;;;;;;;;;;;;;19.46;63.63;97051.91;601975;235;65105;-61
2023/05/25 06:37:25;;;;;;;;;;;;;;;19.48;63.58;97051.66;602062;235;69694;-61
2023/05/25 06:39:52;;;;;;;;;;;;;;;19.49;63.51;97053.25;602072;235;68373;-61
2023/05/25 06:42:20;;;;;;;;;;;;;;;19.49;63.45;97051.38;601986;235;62730;-61
2023/05/25 06:44:52;;;;;;;;;;;;;;;19.51;63.39;97053.80;602066;235;46598;-60
2023/05/25 06:47:19;;;;;;;;;;;;;;;19.51;63.37;97048.47;601982;235;69091;-61
2023/05/25 06:49:47;;;;;;;;;;;;;;;19.52;63.34;97050.86;601962;235;63037;-61
2023/05/25 06:52:15;;;;;;;;;;;;;;;19.52;63.35;97050.06;602031;235;65749;-61
2023/05/25 06:54:43;;;;;;;;;;;;;;;19.54;63.39;97050.61;602029;235;66344;-60
2023/05/25 06:57:10;;;;;;;;;;;;;;;19.55;63.36;97048.74;601979;235;64848;-61
2023/05/25 06:59:38;;;;;;;;;;;;;;;19.55;63.40;97052.20;601923;235;66455;-61
2023/05/25 07:02:06;;;;;;;;;;;;;;;19.55;63.45;97044.20;601919;235;66656;-60
2023/05/25 07:04:33;;;;;;;;;;;;;;;19.56;63.46;97051.16;602031;235;65098;-61
2023/05/25 07:07:01;;;;;;;;;;;;;;;19.58;63.48;97045.55;602017;235;66355;-63
2023/05/25 07:09:28;;;;;;;;;;;;;;;19.57;63.56;97052.75;601905;235;66584;-61
2023/05/25 07:11:56;;;;;;;;;;;;;;;19.58;63.56;97053.55;601949;235;62888;-61
2023/05/25 07:14:23;;;;;;;;;;;;;;;19.58;63.66;97054.34;601975;235;69051;-61
2023/05/25 07:16:51;;;;;;;;;;;;;;;19.59;63.65;97052.48;601948;235;68708;-61
2023/05/25 07:19:18;;;;;;;;;;;;;;;19.59;63.58;97053.30;601997;235;65133;-61
2023/05/25 07:21:46;;;;;;;;;;;;;;;19.59;63.68;97053.30;600596;235;66592;-61
2023/05/25 07:24:13;;;;;;;;;;;;;;;19.60;63.70;97052.23;598776;235;68948;-62
2023/05/25 07:26:43;;;;;;;;;;;;;;;19.60;63.69;97054.89;598928;235;65169;-61
2023/05/25 07:29:11;;;;;;;;;;;;;;;19.60;63.84;97057.56;598997;235;68724;-61
2023/05/25 07:31:38;;;;;;;;;;;;;;;19.57;63.92;97058.09;598869;235;68671;-60
2023/05/25 07:34:06;;;;;;;;;;;;;;;19.56;64.04;97053.00;598969;235;65044;-60
2023/05/25 07:36:33;;;;;;;;;;;;;;;19.55;63.96;97056.74;598845;235;68848;-60
2023/05/25 07:39:01;;;;;;;;;;;;;;;19.54;63.87;97055.95;598894;235;68890;-60
2023/05/25 07:41:28;;;;;;;;;;;;;;;19.53;63.89;97054.33;598953;235;65174;-60
2023/05/25 07:43:56;;;;;;;;;;;;;;;19.53;63.92;97054.33;598884;235;68921;-63
2023/05/25 07:46:24;;;;;;;;;;;;;;;19.51;63.87;97057.27;598843;235;68687;-64
2023/05/25 07:48:53;;;;;;;;;;;;;;;19.53;63.88;97062.31;598941;235;65022;-60
2023/05/25 07:51:22;;;;;;;;;;;;;;;19.52;64.08;97055.39;598874;235;66489;-61
2023/05/25 07:53:51;;;;;;;;;;;;;;;19.52;64.04;97058.86;598851;235;66336;-62
2023/05/25 07:56:18;;;;;;;;;;;;;;;19.51;63.85;97051.94;598960;235;65089;-62
2023/05/25 07:58:46;;;;;;;;;;;;;;;19.51;63.80;97053.80;598868;235;68768;-62
2023/05/25 08:01:14;;;;;;;;;;;;;;;19.51;63.73;97043.14;596510;234;69133;-62
2023/05/25 08:03:42;;;;;;;;;;;;;;;19.52;63.74;97044.73;599127;236;62805;-61
2023/05/25 08:06:10;;;;;;;;;;;;;;;19.52;63.75;97047.40;598174;236;66561;-63
2023/05/25 08:08:37;;;;;;;;;;;;;;;19.51;63.74;97049.27;594369;238;66368;-62
2023/05/25 08:11:05;;;;;;;;;;;;;;;19.50;63.82;97050.31;594370;238;63869;-63
2023/05/25 08:13:32;;;;;;;;;;;;;;;19.51;63.81;97043.14;594304;238;68285;-62
2023/05/25 08:16:00;;;;;;;;;;;;;;;19.52;64.72;97047.40;594345;238;68749;-62
2023/05/25 08:18:27;;;;;;;;;;;;;;;19.51;63.76;97046.60;594341;238;62764;-63
2023/05/25 08:20:55;;;;;;;;;;;;;;;19.50;63.86;97039.65;594278;238;66250;-62
2023/05/25 08:23:24;;;;;;;;;;;;;;;19.50;63.83;97044.98;594419;238;66792;-61
2023/05/25 08:25:53;;;;;;;;;;;;;;;19.51;63.84;97045.81;594334;238;63942;-61
2023/05/25 08:28:22;;;;;;;;;;;;;;;19.50;63.90;97039.65;594139;238;47833;-61
2023/05/25 08:30:50;;;;;;;;;;;;;;;19.51;63.95;97043.14;594367;238;66715;-61
2023/05/25 08:33:17;;;;;;;;;;;;;;;19.50;63.91;97046.84;594320;238;65265;-62
2023/05/25 08:35:45;;;;;;;;;;;;;;;19.51;63.93;97043.14;594189;238;66603;-62
2023/05/25 08:38:13;;;;;;;;;;;;;;;19.50;63.93;97036.98;594354;238;68716;-62
2023/05/25 08:40:42;;;;;;;;;;;;;;;19.51;64.03;97037.81;594278;238;65047;-62
2023/05/25 08:43:09;;;;;;;;;;;;;;;19.51;64.46;97038.61;593402;238;66690;-62
2023/05/25 08:45:38;;;;;;;;;;;;;;;19.51;64.58;97033.27;593942;238;68554;-62
2023/05/25 08:48:09;;;;;;;;;;;;;;;19.52;64.67;97036.73;596600;237;65081;-61
2023/05/25 08:50:38;;;;;;;;;;;;;;;19.52;64.80;97045.53;596879;237;68822;-63
2023/05/25 08:53:07;;;;;;;;;;;;;;;19.51;64.75;97043.94;596911;237;68915;-62
2023/05/25 08:55:36;;;;;;;;;;;;;;;19.51;64.56;97037.81;596838;237;65036;-61
2023/05/25 08:58:09;;;;;;;;;;;;;;;19.51;64.54;97035.94;596810;237;66645;-63
2023/05/25 09:00:37;;;;;;;;;;;;;;;19.52;64.55;97039.41;596642;237;68736;-61
2023/05/25 09:03:21;;;;;;;;;;;;;;;19.52;64.62;97042.06;596816;237;62075;-62
2023/05/25 09:05:45;;;;;;;;;;;;;;;19.51;64.63;97033.27;593936;238;68827;-61
2023/05/25 09:08:13;;;;;;;;;;;;;;;19.51;64.63;97027.95;594416;238;66483;-62
2023/05/25 09:10:41;;;;;;;;;;;;;;;19.51;64.63;97032.48;594209;238;65056;-61
2023/05/25 09:13:08;;;;;;;;;;;;;;;19.51;64.61;97027.95;594398;238;66609;-61
2023/05/25 09:15:36;;;;;;;;;;;;;;;19.52;64.60;97028.73;594376;238;69248;-62
2023/05/25 09:18:03;;;;;;;;;;;;;;;19.52;64.65;97028.73;594363;238;64156;-61
2023/05/25 09:20:31;;;;;;;;;;;;;;;19.52;64.67;97023.41;594322;238;66276;-63
2023/05/25 09:22:59;;;;;;;;;;;;;;;19.52;64.68;97026.08;595269;238;66718;-61
2023/05/25 09:25:26;;;;;;;;;;;;;;;19.51;64.63;97019.95;593266;239;65065;-61
2023/05/25 09:27:57;;;;;;;;;;;;;;;19.51;64.64;97017.28;593285;239;68889;-61
2023/05/25 09:30:26;;;;;;;;;;;;;;;19.51;64.63;97022.61;593359;239;66485;-62
2023/05/25 09:32:54;;;;;;;;;;;;;;;19.53;64.70;97019.67;593321;239;65217;-62
2023/05/25 09:35:23;;;;;;;;;;;;;;;19.51;64.65;97014.62;593297;239;66316;-62
2023/05/25 09:37:53;;;;;;;;;;;;;;;19.53;64.72;97019.67;587926;239;68779;-61
2023/05/25 09:40:21;;;;;;;;;;;;;;;19.52;64.87;97018.08;593255;239;64986;-61
2023/05/25 09:42:49;;;;;;;;;;;;;;;19.52;64.89;97018.88;593342;239;69011;-62
2023/05/25 09:45:17;;;;;;;;;;;;;;;19.52;64.85;97008.21;593316;239;68745;-61
2023/05/25 09:47:44;;;;;;;;;;;;;;;19.61;65.31;97007.70;593235;239;65063;-61
2023/05/25 09:50:12;;;;;;;;;;;;;;;19.59;65.05;97007.98;593317;239;68599;-61
2023/05/25 09:52:39;;;;;;;;;;;;;;;19.56;64.86;97005.84;593280;239;68853;-62
2023/05/25 09:55:08;;;;;;;;;;;;;;;19.55;65.06;96998.89;593245;239;65115;-62
2023/05/25 09:57:36;;;;;;;;;;;;;;;19.55;64.97;97003.42;593217;239;68786;-61
2023/05/25 10:00:04;;;;;;;;;;;;;;;19.55;64.91;97000.77;593116;239;68677;-63
2023/05/25 10:02:34;;;;;;;;;;;;;;;19.55;65.00;97000.77;593140;239;41638;-61
2023/05/25 10:05:01;;;;;;;;;;;;;;;19.54;65.06;96997.30;593251;239;68832;-63
2023/05/25 10:07:30;;;;;;;;;;;;;;;19.54;64.95;96989.30;593267;239;68710;-62
2023/05/25 10:09:59;;;;;;;;;;;;;;;19.54;64.94;96991.97;593335;239;65262;-62
2023/05/25 10:12:28;;;;;;;;;;;;;;;19.54;64.91;96994.64;593312;239;67335;-62
2023/05/25 10:14:58;;;;;;;;;;;;;;;19.55;64.88;96979.44;593173;239;68793;-62
2023/05/25 10:17:26;;;;;;;;;;;;;;;19.54;64.92;96981.31;593293;239;62912;-62
2023/05/25 10:19:55;;;;;;;;;;;;;;;19.54;64.91;96973.31;593070;239;66356;-62
2023/05/25 10:22:25;;;;;;;;;;;;;;;19.54;64.98;96970.64;593050;239;65866;-62
2023/05/25 10:25:10;;;;;;;;;;;;;;;19.54;64.94;96961.85;594979;237;63043;-62
2023/05/25 10:27:42;;;;;;;;;;;;;;;19.55;64.93;96971.44;597420;237;69718;-62
2023/05/25 10:30:10;;;;;;;;;;;;;;;19.54;64.96;96969.85;596979;237;66937;-62
2023/05/25 10:32:38;;;;;;;;;;;;;;;19.54;64.92;96967.98;597241;237;62915;-63
2023/05/25 10:35:07;;;;;;;;;;;;;;;19.54;64.92;96962.66;597335;237;66476;-62
2023/05/25 10:37:35;;;;;;;;;;;;;;;19.54;64.89;96967.19;597294;237;66725;-62
2023/05/25 10:40:03;;;;;;;;;;;;;;;19.54;64.89;96961.85;597253;237;62024;-62
2023/05/25 10:42:31;;;;;;;;;;;;;;;19.54;64.89;96953.86;597290;237;68815;-62
2023/05/25 10:45:03;;;;;;;;;;;;;;;19.54;64.88;96962.66;597527;237;48265;-62
2023/05/25 10:47:31;;;;;;;;;;;;;;;19.54;64.86;96956.52;597536;237;65117;-62
2023/05/25 10:50:01;;;;;;;;;;;;;;;19.54;64.85;96962.66;597455;237;68516;-62
2023/05/25 10:52:29;;;;;;;;;;;;;;;19.55;64.85;96964.23;597554;237;67139;-62
2023/05/25 10:54:58;;;;;;;;;;;;;;;19.54;64.83;96969.85;597487;237;65416;-61
2023/05/25 10:57:26;;;;;;;;;;;;;;;19.55;64.82;96969.58;597485;237;66627;-62
2023/05/25 10:59:58;;;;;;;;;;;;;;;19.55;64.79;96968.77;597496;237;68530;-61
2023/05/25 11:02:25;;;;;;;;;;;;;;;19.55;64.77;96971.44;597340;237;62970;-61
2023/05/25 11:04:55;;;;;;;;;;;;;;;19.55;64.77;96964.23;597414;237;68325;-61
2023/05/25 11:07:23;;;;;;;;;;;;;;;19.55;64.80;96974.11;595472;237;66258;-61
2023/05/25 11:09:58;;;;;;;;;;;;;;;19.55;64.77;96972.23;597495;237;65097;-62
2023/05/25 11:12:26;;;;;;;;;;;;;;;19.55;64.74;96972.23;597497;237;68887;-61
2023/05/25 11:15:10;;;;;;;;;;;;;;;19.56;64.71;96981.86;597503;237;68879;-62
2023/05/25 11:17:45;;;;;;;;;;;;;;;19.55;64.75;96969.58;597349;237;66207;-61
2023/05/25 11:20:22;;;;;;;;;;;;;;;19.56;64.77;96965.03;597454;237;68888;-60
2023/05/25 11:22:51;;;;;;;;;;;;;;;19.55;64.78;96968.77;597535;237;68775;-61
2023/05/25 11:25:37;;;;;;;;;;;;;;;19.55;64.76;96955.45;597454;237;64914;-61
2023/05/25 11:28:06;;;;;;;;;;;;;;;19.55;64.73;96956.25;597463;237;68793;-62
2023/05/25 11:30:33;;;;;;;;;;;;;;;19.56;64.69;96967.70;597525;237;66641;-61
2023/05/25 11:33:01;;;;;;;;;;;;;;;19.56;64.69;96959.70;597443;237;65078;-61
2023/05/25 11:35:32;;;;;;;;;;;;;;;19.55;64.76;96952.78;597502;237;66525;-63
2023/05/25 11:38:00;;;;;;;;;;;;;;;19.56;64.73;96949.05;597536;237;66321;-60
2023/05/25 11:40:30;;;;;;;;;;;;;;;19.57;64.67;96953.33;597378;237;65106;-61
2023/05/25 11:42:59;;;;;;;;;;;;;;;19.56;64.68;96963.20;596937;237;68903;-61
2023/05/25 11:45:29;;;;;;;;;;;;;;;19.56;64.66;96963.20;596847;237;66986;-61
2023/05/25 11:47:57;;;;;;;;;;;;;;;19.56;64.71;96965.03;597303;237;64890;-62
2023/05/25 11:50:24;;;;;;;;;;;;;;;19.57;64.75;96966.66;597529;237;66713;-61
2023/05/25 11:52:54;;;;;;;;;;;;;;;19.56;64.79;96971.20;597487;237;66513;-61
2023/05/25 11:55:21;;;;;;;;;;;;;;;19.57;64.81;96970.12;597451;237;65092;-61
2023/05/25 11:57:50;;;;;;;;;;;;;;;19.57;64.79;96978.12;597446;237;68782;-61
2023/05/25 12:00:19;;;;;;;;;;;;;;;19.57;64.80;96991.45;597262;237;68764;-61
2023/05/25 12:02:47;;;;;;;;;;;;;;;19.57;64.79;96996.77;602608;234;63057;-61
2023/05/25 12:05:15;;;;;;;;;;;;;;;19.57;64.80;96999.44;603550;234;68322;-61
2023/05/25 12:07:45;;;;;;;;;;;;;;;19.58;64.79;97017.03;601350;234;66561;-61
2023/05/25 12:10:19;;;;;;;;;;;;;;;19.58;64.73;97013.56;600429;234;62823;-61
2023/05/25 12:12:45;;;;;;;;;;;;;;;19.58;64.74;97019.69;603658;235;69018;-61
2023/05/25 12:15:15;;;;;;;;;;;;;;;19.58;64.75;97010.90;603607;235;68724;-60
2023/05/25 12:17:43;;;;;;;;;;;;;;;19.58;64.74;97005.56;603615;235;65073;-62
2023/05/25 12:20:11;;;;;;;;;;;;;;;19.57;64.88;96999.44;603847;235;68915;-61
2023/05/25 12:22:39;;;;;;;;;;;;;;;19.58;64.80;97001.03;603793;235;68724;-61
2023/05/25 12:25:09;;;;;;;;;;;;;;;19.58;64.83;96993.03;603885;235;65064;-61
2023/05/25 12:27:37;;;;;;;;;;;;;;;19.59;65.02;96991.98;603946;235;66762;-60
2023/05/25 12:30:04;;;;;;;;;;;;;;;19.59;65.06;96986.66;603868;235;68712;-61
2023/05/25 12:32:32;;;;;;;;;;;;;;;19.60;65.10;96982.13;603876;235;65042;-60
2023/05/25 12:35:06;;;;;;;;;;;;;;;19.58;65.08;96974.38;603884;235;68466;-61
2023/05/25 12:37:35;;;;;;;;;;;;;;;19.60;65.07;96985.58;603813;235;68717;-60
2023/05/25 12:40:04;;;;;;;;;;;;;;;19.60;65.09;96984.79;603881;235;62882;-62
2023/05/25 12:42:33;;;;;;;;;;;;;;;19.60;64.99;97006.91;603443;235;66665;-61
2023/05/25 12:45:00;;;;;;;;;;;;;;;19.60;64.85;97028.23;603873;235;68744;-61
2023/05/25 12:47:29;;;;;;;;;;;;;;;19.60;64.78;97057.56;603903;235;65070;-60
2023/05/25 12:50:13;;;;;;;;;;;;;;;19.61;64.79;97095.68;603877;235;68797;-61
2023/05/25 12:52:45;;;;;;;;;;;;;;;19.61;64.79;97127.67;603882;235;68593;-62
2023/05/25 13:11:47;;;;;;;;;;;;;;;19.57;64.75;97007.44;603375;234;40299;-61